createdAt,value
2023-10-06T00:01:51.236Z,10.32
2023-10-06T00:05:57.079Z,9.30
2023-10-06T00:10:00.594Z,10.15
2023-10-06T00:14:08.846Z,8.93
2023-10-06T00:18:39.559Z,9.95
2023-10-06T00:22:48.811Z,10.65
2023-10-06T00:26:53.096Z,12.00
2023-10-06T00:30:57.621Z,11.20
2023-10-06T00:35:09.697Z,11.32
2023-10-06T00:39:14.177Z,10.50
2023-10-06T00:43:18.631Z,10.45
2023-10-06T00:47:23.695Z,10.68
2023-10-06T00:51:29.675Z,10.73
2023-10-06T00:55:34.274Z,10.30
2023-10-06T00:59:42.729Z,10.75
2023-10-06T01:04:09.940Z,11.43
2023-10-06T01:08:21.224Z,9.90
2023-10-06T01:12:26.342Z,11.13
2023-10-06T01:16:36.364Z,10.38
2023-10-06T01:20:42.899Z,11.18
2023-10-06T01:24:46.141Z,11.27
2023-10-06T01:28:50.660Z,10.52
2023-10-06T01:32:53.523Z,11.30
2023-10-06T01:36:57.958Z,10.70
2023-10-06T01:41:03.729Z,10.90
2023-10-06T01:45:16.205Z,10.53
2023-10-06T01:49:19.195Z,9.07
2023-10-06T01:53:27.029Z,11.40
2023-10-06T01:57:31.010Z,10.55
2023-10-06T02:01:37.191Z,11.32
2023-10-06T02:05:40.281Z,11.98
2023-10-06T02:09:44.591Z,10.75
2023-10-06T02:13:47.403Z,10.63
2023-10-06T02:17:52.498Z,11.95
2023-10-06T02:26:03.604Z,10.38
2023-10-06T02:30:11.727Z,10.90
2023-10-06T02:34:19.561Z,12.60
2023-10-06T02:38:23.494Z,11.20
2023-10-06T02:42:27.717Z,11.82
2023-10-06T02:46:33.238Z,10.98
2023-10-06T02:50:55.474Z,12.15
2023-10-06T02:55:06.084Z,13.77
2023-10-06T02:59:27.606Z,13.18
2023-10-06T03:03:40.092Z,12.27
2023-10-06T03:07:47.726Z,13.43
2023-10-06T03:11:52.229Z,12.73
2023-10-06T03:15:57.407Z,12.20
2023-10-06T03:20:12.553Z,10.77
2023-10-06T03:28:39.260Z,11.82
2023-10-06T03:32:45.097Z,11.35
2023-10-06T03:36:54.045Z,11.05
2023-10-06T03:40:59.096Z,12.10
2023-10-06T03:45:13.724Z,11.77
2023-10-06T03:49:16.698Z,12.63
2023-10-06T03:53:20.043Z,10.55
2023-10-06T03:57:24.269Z,10.95
2023-10-06T04:01:27.705Z,11.52
2023-10-06T04:05:32.039Z,11.32
2023-10-06T04:09:36.926Z,10.57
2023-10-06T04:13:40.266Z,10.07
2023-10-06T04:17:45.514Z,10.05
2023-10-06T04:21:50.113Z,10.05
2023-10-06T04:26:08.234Z,9.45
2023-10-06T04:30:14.986Z,9.30
2023-10-06T04:34:20.057Z,10.17
2023-10-06T04:38:29.638Z,9.73
2023-10-06T04:46:52.066Z,9.50
2023-10-06T04:51:05.792Z,10.55
2023-10-06T04:55:13.069Z,8.80
2023-10-06T04:59:17.225Z,10.60
2023-10-06T05:03:21.541Z,10.05
2023-10-06T05:07:26.152Z,9.65
2023-10-06T05:11:33.906Z,8.88
2023-10-06T05:15:38.179Z,8.95
2023-10-06T05:19:41.230Z,9.32
2023-10-06T05:23:46.768Z,9.13
2023-10-06T05:27:51.897Z,9.75
2023-10-06T05:31:54.960Z,9.10
2023-10-06T05:35:59.576Z,9.45
2023-10-06T05:40:02.608Z,9.95
2023-10-06T05:44:08.623Z,11.07
2023-10-06T05:48:17.318Z,9.80
2023-10-06T05:52:21.547Z,9.20
2023-10-06T05:56:24.811Z,9.30
2023-10-06T06:00:32.530Z,9.48
2023-10-06T06:04:36.280Z,10.77
2023-10-06T06:08:41.652Z,11.23
2023-10-06T06:12:46.657Z,11.32
2023-10-06T06:16:49.827Z,10.02
2023-10-06T06:20:53.371Z,9.63
2023-10-06T06:24:56.521Z,10.45
2023-10-06T06:29:04.106Z,11.75
2023-10-06T06:33:13.577Z,12.82
2023-10-06T06:37:16.991Z,12.85
2023-10-06T06:41:20.753Z,11.55
2023-10-06T06:45:27.611Z,11.20
2023-10-06T06:49:31.370Z,11.80
2023-10-06T06:53:34.210Z,12.15
2023-10-06T06:57:37.172Z,12.93
2023-10-06T07:01:40.323Z,13.02
2023-10-06T07:05:44.256Z,13.65
2023-10-06T07:09:48.138Z,13.30
2023-10-06T07:13:51.059Z,13.63
2023-10-06T07:17:55.995Z,13.40
2023-10-06T07:21:59.684Z,12.77
2023-10-06T07:26:02.572Z,13.38
2023-10-06T07:30:11.377Z,13.15
2023-10-06T07:34:15.497Z,12.35
2023-10-06T07:38:19.418Z,11.50
2023-10-06T07:42:22.264Z,11.70
2023-10-06T07:46:25.242Z,11.10
2023-10-06T07:50:30.278Z,10.13
2023-10-06T07:54:34.089Z,10.23
2023-10-06T07:58:39.194Z,10.30
2023-10-06T08:02:42.198Z,9.90
2023-10-06T08:06:47.430Z,9.82
2023-10-06T08:10:54.636Z,8.95
2023-10-06T08:19:01.685Z,8.75
2023-10-06T08:23:04.766Z,7.65
2023-10-06T08:27:09.142Z,8.05
2023-10-06T08:31:16.870Z,6.90
2023-10-06T08:35:21.265Z,6.22
2023-10-06T08:39:39.794Z,7.50
2023-10-06T08:43:44.180Z,6.57
2023-10-06T08:48:00.720Z,7.00
2023-10-06T08:52:07.963Z,6.65
2023-10-06T08:56:16.518Z,7.05
2023-10-06T09:00:23.735Z,6.35
2023-10-06T09:04:34.362Z,7.15
2023-10-06T09:08:48.643Z,7.22
2023-10-06T09:13:07.203Z,7.45
2023-10-06T09:17:10.274Z,7.82
2023-10-06T09:21:14.271Z,8.18
2023-10-06T09:25:19.818Z,7.30
2023-10-06T09:29:37.275Z,7.30
2023-10-06T09:33:40.094Z,7.68
2023-10-06T09:37:42.900Z,7.78
2023-10-06T09:41:49.320Z,7.45
2023-10-06T09:45:57.925Z,8.40
2023-10-06T09:50:02.888Z,8.10
2023-10-06T09:54:11.425Z,8.60
2023-10-06T09:58:15.014Z,8.30
2023-10-06T10:02:22.261Z,8.05
2023-10-06T10:06:25.609Z,7.63
2023-10-06T10:10:29.843Z,7.60
2023-10-06T10:15:17.315Z,6.85
2023-10-06T10:19:23.575Z,6.88
2023-10-06T10:23:27.843Z,6.45
2023-10-06T10:27:31.524Z,6.65
2023-10-06T10:32:24.860Z,6.57
2023-10-06T10:36:28.271Z,7.30
2023-10-06T10:40:33.280Z,6.65
2023-10-06T10:44:37.201Z,6.90
2023-10-06T10:48:49.411Z,6.60
2023-10-06T10:52:55.233Z,6.70
2023-10-06T10:57:06.944Z,6.07
2023-10-06T11:01:29.015Z,6.72
2023-10-06T11:05:32.613Z,5.90
2023-10-06T11:09:41.744Z,6.25
2023-10-06T11:14:02.661Z,6.00
2023-10-06T11:18:07.629Z,6.68
2023-10-06T11:22:15.750Z,6.53
2023-10-06T11:26:33.361Z,6.47
2023-10-06T11:30:40.146Z,6.10
2023-10-06T11:34:45.320Z,6.10
2023-10-06T11:38:49.138Z,6.07
2023-10-06T11:42:55.502Z,6.80
2023-10-06T11:46:59.677Z,5.68
2023-10-06T11:51:17.642Z,6.00
2023-10-06T11:55:27.396Z,5.03
2023-10-06T11:59:32.077Z,5.78
2023-10-06T12:08:10.171Z,5.80
2023-10-06T12:12:13.065Z,5.88
2023-10-06T12:16:17.199Z,5.07
2023-10-06T12:20:20.314Z,5.38
2023-10-06T12:24:24.807Z,5.88
2023-10-06T12:28:27.822Z,4.75
2023-10-06T12:32:34.337Z,3.97
2023-10-06T12:36:37.473Z,5.05
2023-10-06T12:40:40.594Z,4.93
2023-10-06T12:44:44.168Z,5.03
2023-10-06T12:48:48.426Z,4.75
2023-10-06T12:52:56.703Z,5.10
2023-10-06T12:56:59.544Z,5.68
2023-10-06T13:01:02.487Z,5.07
2023-10-06T13:05:15.951Z,5.20
2023-10-06T13:09:24.223Z,5.28
2023-10-06T13:13:27.825Z,4.88
2023-10-06T13:17:30.908Z,5.32
2023-10-06T13:21:33.929Z,6.13
2023-10-06T13:25:40.172Z,5.22
2023-10-06T13:29:42.887Z,5.55
2023-10-06T13:33:46.663Z,5.97
2023-10-06T13:37:49.850Z,5.32
2023-10-06T13:41:53.035Z,5.13
2023-10-06T13:45:58.800Z,5.68
2023-10-06T13:50:02.039Z,5.18
2023-10-06T13:54:06.867Z,5.50
2023-10-06T13:58:13.538Z,5.13
2023-10-06T14:02:17.699Z,5.40
2023-10-06T14:06:20.507Z,4.68
2023-10-06T14:10:23.983Z,5.35
2023-10-06T14:14:39.144Z,5.47
2023-10-06T14:18:42.161Z,5.68
2023-10-06T14:22:45.405Z,5.57
2023-10-06T14:26:48.227Z,5.28
2023-10-06T14:30:52.656Z,5.32
2023-10-06T14:34:59.436Z,5.60
2023-10-06T14:39:20.645Z,5.70
2023-10-06T14:43:43.127Z,4.97
2023-10-06T14:47:46.120Z,5.00
2023-10-06T14:51:48.971Z,5.43
2023-10-06T14:55:52.830Z,5.47
2023-10-06T14:59:56.674Z,4.95
2023-10-06T15:04:05.320Z,5.53
2023-10-06T15:08:13.652Z,6.03
2023-10-06T15:12:16.773Z,5.95
2023-10-06T15:16:20.313Z,5.30
2023-10-06T15:20:23.617Z,5.20
2023-10-06T15:24:26.885Z,4.82
2023-10-06T15:28:40.497Z,4.80
2023-10-06T15:32:47.549Z,5.00
2023-10-06T15:36:51.910Z,4.78
2023-10-06T15:41:04.422Z,4.78
2023-10-06T15:45:08.752Z,5.00
2023-10-06T15:49:15.864Z,5.13
2023-10-06T15:53:23.808Z,5.07
2023-10-06T15:57:29.711Z,5.43
2023-10-06T16:01:33.611Z,5.20
2023-10-06T16:05:39.612Z,4.78
2023-10-06T16:09:42.813Z,5.07
2023-10-06T16:13:48.699Z,5.18
2023-10-06T16:17:51.931Z,5.32
2023-10-06T16:21:58.540Z,5.15
2023-10-06T16:26:03.529Z,4.78
2023-10-06T16:30:08.624Z,5.35
2023-10-06T16:34:14.292Z,5.47
2023-10-06T16:38:17.478Z,5.47
2023-10-06T16:42:21.816Z,5.20
2023-10-06T16:46:26.655Z,5.35
2023-10-06T16:50:31.168Z,4.93
2023-10-06T16:54:35.200Z,5.85
2023-10-06T16:58:38.247Z,5.90
2023-10-06T17:02:42.948Z,5.53
2023-10-06T17:06:51.187Z,5.82
2023-10-06T17:10:54.420Z,6.18
2023-10-06T17:14:58.964Z,5.53
2023-10-06T17:19:04.150Z,5.93
2023-10-06T17:23:07.474Z,6.47
2023-10-06T17:27:17.003Z,5.90
2023-10-06T17:31:21.662Z,6.30
2023-10-06T17:35:24.847Z,6.07
2023-10-06T17:39:28.498Z,5.72
2023-10-06T17:43:35.691Z,5.85
2023-10-06T17:47:39.793Z,6.15
2023-10-06T17:51:44.653Z,5.70
2023-10-06T17:55:58.178Z,6.53
2023-10-06T18:00:01.304Z,5.20
2023-10-06T18:04:07.243Z,5.38
2023-10-06T18:12:37.936Z,4.97
2023-10-06T18:21:02.832Z,5.35
2023-10-06T18:25:16.079Z,5.22
2023-10-06T18:29:23.946Z,5.30
2023-10-06T18:33:32.592Z,5.32
2023-10-06T18:37:42.830Z,6.35
2023-10-06T18:41:48.933Z,5.18
2023-10-06T18:46:11.002Z,6.10
2023-10-06T18:50:19.768Z,6.47
2023-10-06T18:54:24.746Z,6.88
2023-10-06T18:58:30.500Z,6.38
2023-10-06T19:02:33.743Z,6.78
2023-10-06T19:06:41.091Z,6.57
2023-10-06T19:10:47.969Z,6.53
2023-10-06T19:14:51.707Z,6.35
2023-10-06T19:18:54.729Z,6.90
2023-10-06T19:23:00.289Z,6.78
2023-10-06T19:27:04.611Z,7.10
2023-10-06T19:31:14.234Z,6.43
2023-10-06T19:35:18.193Z,7.10
2023-10-06T19:39:21.224Z,6.53
2023-10-06T19:43:27.964Z,6.63
2023-10-06T19:47:34.314Z,6.13
2023-10-06T19:55:55.227Z,6.65
2023-10-06T20:00:01.410Z,6.47
2023-10-06T20:08:27.868Z,7.60
2023-10-06T20:16:59.053Z,6.05
2023-10-06T20:21:03.405Z,5.75
2023-10-06T20:29:34.505Z,6.15
2023-10-06T20:37:56.621Z,7.32
2023-10-06T20:42:03.173Z,6.88
2023-10-06T20:50:26.716Z,7.60
2023-10-06T20:54:34.397Z,7.30
2023-10-06T20:58:43.840Z,6.30
2023-10-06T21:02:48.654Z,7.05
2023-10-06T21:11:13.044Z,7.20
2023-10-06T21:15:18.892Z,6.43
2023-10-06T21:19:31.559Z,7.22
2023-10-06T21:27:52.647Z,7.03
2023-10-06T21:31:57.965Z,7.22
2023-10-06T21:36:08.931Z,7.15
2023-10-06T21:40:16.055Z,8.38
2023-10-06T22:14:23.949Z,8.00
2023-10-06T22:27:17.119Z,8.23
2023-10-06T22:44:17.738Z,7.88
2023-10-06T22:52:39.254Z,7.80
2023-10-06T23:31:09.844Z,9.50
2023-10-06T23:35:16.066Z,9.35
2023-10-06T23:43:47.614Z,9.32
2023-10-06T23:56:52.816Z,9.32
